Terminal Aerodrome Forecast
Issued by NWS

Current Version | Previous Version | Text Only | Print | Product List | Glossary On
Versions: 1 2 3 4 5 6 7 8 9 10 11 12 13 14 15 16 17 18 19 20 21 22 23 24 25 26
121
FTUS41 KBUF 232108 AAB
TAFJHW
TAF AMD
KJHW 232108Z 2321/2418 16010G18KT P6SM FEW250
     FM232200 16008KT P6SM SCT250
     FM240900 16010KT P6SM BKN100
     FM241300 16012G18KT P6SM OVC060
     FM241700 16014G22KT 6SM -RA SCT035 BKN050
      AMD LTD TO CLD VIS AND WIND=

USA.gov is the U.S. government's official web portal to all federal, state and local government web resources and services.